Time;durP1;ratioP1;P1;durP2;ratioP2;P2;SDS_P1;SDS_P2;PMS_P1;PMS_P2;Temp;Humidity;BMP_temperature;BMP_pressure;BME280_temperature;BME280_humidity;BME280_pressure;Samples;Min_cycle;Max_cycle;Signal;HPM_P1;HPM_P2
2022/11/12 00:00:27;;;;;;;;;;;;;;;;;;4970648;28;19933;-57
2022/11/12 00:02:53;;;;;;;;;;;;;;;;;;4988929;28;19932;-57
2022/11/12 00:05:19;;;;;;;;;;;;;;;;;;4988027;28;20313;-58
2022/11/12 00:07:45;;;;;;;;;;;;;;;;;;4987830;28;19930;-57
2022/11/12 00:10:11;;;;;;;;;;;;;;;;;;4987571;28;20401;-57
2022/11/12 00:12:37;;;;;;;;;;;;;;;;;;4988413;28;19980;-57
2022/11/12 00:15:03;;;;;;;;;;;;;;;;;;4988846;28;20312;-56
2022/11/12 00:17:29;;;;;;;;;;;;;;;;;;4988121;28;19933;-56
2022/11/12 00:19:55;;;;;;;;;;;;;;;;;;4971246;28;20012;-57
2022/11/12 00:22:21;;;;;;;;;;;;;;;;;;4987738;28;19926;-56
2022/11/12 00:24:47;;;;;;;;;;;;;;;;;;4988097;28;19926;-56
2022/11/12 00:27:13;;;;;;;;;;;;;;;;;;4987475;28;19955;-57
2022/11/12 00:29:39;;;;;;;;;;;;;;;;;;4988414;28;20013;-57
2022/11/12 00:32:05;;;;;;;;;;;;;;;;;;4987945;28;19941;-58
2022/11/12 00:34:31;;;;;;;;;;;;;;;;;;4988563;28;20339;-57
2022/11/12 00:36:57;;;;;;;;;;;;;;;;;;4987285;28;20016;-57
2022/11/12 00:39:23;;;;;;;;;;;;;;;;;;4987113;28;20005;-57
2022/11/12 00:41:49;;;;;;;;;;;;;;;;;;4987713;28;19925;-57
2022/11/12 00:44:15;;;;;;;;;;;;;;;;;;4987838;28;19972;-57
2022/11/12 00:46:41;;;;;;;;;;;;;;;;;;4987866;28;20014;-56
2022/11/12 00:49:07;;;;;;;;;;;;;;;;;;4977636;28;19926;-57
2022/11/12 00:51:33;;;;;;;;;;;;;;;;;;4984645;28;19926;-57
2022/11/12 00:53:59;;;;;;;;;;;;;;;;;;4987421;28;20008;-57
2022/11/12 00:56:25;;;;;;;;;;;;;;;;;;4987175;28;19930;-57
2022/11/12 00:58:51;;;;;;;;;;;;;;;;;;4988283;28;20279;-57
2022/11/12 01:01:16;;;;;;;;;;;;;;;;;;4988242;28;19926;-57
2022/11/12 01:03:42;;;;;;;;;;;;;;;;;;4991802;28;19925;-57
2022/11/12 01:06:08;;;;;;;;;;;;;;;;;;4991278;28;19932;-57
2022/11/12 01:08:34;;;;;;;;;;;;;;;;;;4991413;28;19984;-58
2022/11/12 01:11:00;;;;;;;;;;;;;;;;;;4991787;28;19926;-57
2022/11/12 01:13:26;;;;;;;;;;;;;;;;;;4991614;28;20372;-57
2022/11/12 01:15:52;;;;;;;;;;;;;;;;;;4991809;28;19976;-56
2022/11/12 01:18:18;;;;;;;;;;;;;;;;;;4991422;28;19926;-57
2022/11/12 01:20:44;;;;;;;;;;;;;;;;;;4991577;28;20284;-57
2022/11/12 01:23:10;;;;;;;;;;;;;;;;;;4991169;28;19972;-57
2022/11/12 01:25:36;;;;;;;;;;;;;;;;;;4990278;28;19926;-56
2022/11/12 01:28:02;;;;;;;;;;;;;;;;;;4991567;28;19926;-56
2022/11/12 01:30:28;;;;;;;;;;;;;;;;;;4973365;28;20412;-56
2022/11/12 01:32:54;;;;;;;;;;;;;;;;;;4991458;28;19977;-56
2022/11/12 01:35:20;;;;;;;;;;;;;;;;;;4991081;28;20092;-57
2022/11/12 01:37:46;;;;;;;;;;;;;;;;;;4990661;28;19960;-56
2022/11/12 01:40:13;;;;;;;;;;;;;;;;;;4990702;28;19933;-56
2022/11/12 01:42:39;;;;;;;;;;;;;;;;;;4991088;28;19944;-56
2022/11/12 01:45:05;;;;;;;;;;;;;;;;;;4990778;28;19983;-56
2022/11/12 01:47:31;;;;;;;;;;;;;;;;;;4991160;28;20576;-57
2022/11/12 01:49:57;;;;;;;;;;;;;;;;;;4977096;28;19925;-57
2022/11/12 01:52:23;;;;;;;;;;;;;;;;;;4989769;28;20008;-57
2022/11/12 01:54:49;;;;;;;;;;;;;;;;;;4990807;28;19929;-56
2022/11/12 01:57:15;;;;;;;;;;;;;;;;;;4990855;28;19933;-56
2022/11/12 01:59:41;;;;;;;;;;;;;;;;;;4991107;28;19925;-57
2022/11/12 02:02:07;;;;;;;;;;;;;;;;;;4990395;28;19993;-57
2022/11/12 02:04:33;;;;;;;;;;;;;;;;;;4991255;28;19933;-57
2022/11/12 02:06:59;;;;;;;;;;;;;;;;;;4990823;28;19938;-57
2022/11/12 02:09:25;;;;;;;;;;;;;;;;;;4989666;28;19925;-56
2022/11/12 02:11:51;;;;;;;;;;;;;;;;;;4990455;28;19926;-56
2022/11/12 02:14:17;;;;;;;;;;;;;;;;;;4989998;28;19960;-55
2022/11/12 02:16:43;;;;;;;;;;;;;;;;;;4981413;28;19926;-57
2022/11/12 02:19:09;;;;;;;;;;;;;;;;;;4990456;28;19926;-57
2022/11/12 02:21:35;;;;;;;;;;;;;;;;;;4976883;28;19937;-57
2022/11/12 02:24:01;;;;;;;;;;;;;;;;;;4976419;28;19926;-56
2022/11/12 02:26:27;;;;;;;;;;;;;;;;;;4958921;28;20372;-56
2022/11/12 02:28:53;;;;;;;;;;;;;;;;;;4990302;28;19930;-57
2022/11/12 02:31:19;;;;;;;;;;;;;;;;;;4989517;28;20439;-57
2022/11/12 02:33:45;;;;;;;;;;;;;;;;;;4982060;28;19926;-56
2022/11/12 02:36:11;;;;;;;;;;;;;;;;;;4984455;28;20316;-57
2022/11/12 02:38:37;;;;;;;;;;;;;;;;;;4989241;28;19933;-56
2022/11/12 02:41:03;;;;;;;;;;;;;;;;;;4990449;28;20401;-56
2022/11/12 02:43:29;;;;;;;;;;;;;;;;;;4990151;28;19922;-57
2022/11/12 02:45:55;;;;;;;;;;;;;;;;;;4990079;28;19973;-56
2022/11/12 02:48:21;;;;;;;;;;;;;;;;;;4989819;28;20480;-56
2022/11/12 02:50:47;;;;;;;;;;;;;;;;;;4981410;28;19933;-57
2022/11/12 02:53:13;;;;;;;;;;;;;;;;;;4983243;28;19926;-56
2022/11/12 02:55:39;;;;;;;;;;;;;;;;;;4990258;28;19968;-57
2022/11/12 02:58:05;;;;;;;;;;;;;;;;;;4989870;28;19989;-57
2022/11/12 03:00:31;;;;;;;;;;;;;;;;;;4989896;28;19930;-57
2022/11/12 03:02:58;;;;;;;;;;;;;;;;;;4989780;28;20331;-57
2022/11/12 03:05:24;;;;;;;;;;;;;;;;;;4988185;28;19929;-57
2022/11/12 03:07:50;;;;;;;;;;;;;;;;;;4989023;28;19945;-57
2022/11/12 03:10:16;;;;;;;;;;;;;;;;;;4989116;28;19929;-57
2022/11/12 03:12:42;;;;;;;;;;;;;;;;;;4989178;28;19929;-56
2022/11/12 03:15:08;;;;;;;;;;;;;;;;;;4989340;28;19933;-57
2022/11/12 03:17:33;;;;;;;;;;;;;;;;;;4989626;28;19925;-57
2022/11/12 03:19:59;;;;;;;;;;;;;;;;;;4989037;28;20035;-56
2022/11/12 03:22:25;;;;;;;;;;;;;;;;;;4988121;28;19932;-58
2022/11/12 03:24:51;;;;;;;;;;;;;;;;;;4979981;28;19930;-58
2022/11/12 03:27:17;;;;;;;;;;;;;;;;;;4966257;28;20009;-58
2022/11/12 03:29:43;;;;;;;;;;;;;;;;;;4975473;28;20295;-57
2022/11/12 03:32:09;;;;;;;;;;;;;;;;;;4988614;28;20291;-58
2022/11/12 03:34:35;;;;;;;;;;;;;;;;;;4988333;28;19926;-57
2022/11/12 03:37:02;;;;;;;;;;;;;;;;;;4988736;28;19950;-58
2022/11/12 03:39:28;;;;;;;;;;;;;;;;;;4988695;28;20000;-57
2022/11/12 03:41:54;;;;;;;;;;;;;;;;;;4988820;28;20410;-57
2022/11/12 03:44:20;;;;;;;;;;;;;;;;;;4988772;28;19934;-58
2022/11/12 03:46:46;;;;;;;;;;;;;;;;;;4988670;28;20380;-57
2022/11/12 03:49:12;;;;;;;;;;;;;;;;;;4988278;28;19926;-58
2022/11/12 03:51:38;;;;;;;;;;;;;;;;;;4988560;28;19921;-58
2022/11/12 03:54:04;;;;;;;;;;;;;;;;;;4987558;28;19925;-57
2022/11/12 03:56:30;;;;;;;;;;;;;;;;;;4988338;28;20303;-57
2022/11/12 03:58:56;;;;;;;;;;;;;;;;;;4988548;28;19926;-57
2022/11/12 04:01:22;;;;;;;;;;;;;;;;;;4988399;28;19926;-58
2022/11/12 04:03:48;;;;;;;;;;;;;;;;;;4988300;28;19976;-58
2022/11/12 04:08:59;;;;;;;;;;;;;;;;;;4975180;28;19926;-58
2022/11/12 04:11:25;;;;;;;;;;;;;;;;;;4988089;28;20328;-58
2022/11/12 04:13:50;;;;;;;;;;;;;;;;;;4987982;28;19936;-58
2022/11/12 04:21:55;;;;;;;;;;;;;;;;;;4987000;28;19948;-57
2022/11/12 04:27:07;;;;;;;;;;;;;;;;;;4980247;28;19961;-58
2022/11/12 04:32:17;;;;;;;;;;;;;;;;;;4987689;28;19932;-58
2022/11/12 04:34:43;;;;;;;;;;;;;;;;;;4988347;28;19925;-57
2022/11/12 04:37:09;;;;;;;;;;;;;;;;;;4987226;28;20548;-58
2022/11/12 04:39:35;;;;;;;;;;;;;;;;;;4987256;28;19925;-58
2022/11/12 04:45:00;;;;;;;;;;;;;;;;;;4987810;28;19925;-56
2022/11/12 04:47:26;;;;;;;;;;;;;;;;;;4987406;28;19933;-58
2022/11/12 04:49:52;;;;;;;;;;;;;;;;;;4988032;28;19926;-57
2022/11/12 04:52:18;;;;;;;;;;;;;;;;;;4987146;28;20430;-57
2022/11/12 04:54:44;;;;;;;;;;;;;;;;;;4987830;28;19965;-57
2022/11/12 04:57:10;;;;;;;;;;;;;;;;;;4988024;28;19929;-57
2022/11/12 04:59:36;;;;;;;;;;;;;;;;;;4970585;28;19992;-59
2022/11/12 05:02:02;;;;;;;;;;;;;;;;;;4987679;28;19926;-58
2022/11/12 05:04:28;;;;;;;;;;;;;;;;;;4963300;28;20396;-58
2022/11/12 05:06:54;;;;;;;;;;;;;;;;;;4948632;28;19974;-58
2022/11/12 05:09:20;;;;;;;;;;;;;;;;;;4948966;28;20461;-56
2022/11/12 05:11:46;;;;;;;;;;;;;;;;;;4948870;29;20017;-58
2022/11/12 05:14:12;;;;;;;;;;;;;;;;;;4949131;29;19933;-58
2022/11/12 05:16:38;;;;;;;;;;;;;;;;;;4948676;29;19928;-56
2022/11/12 05:19:04;;;;;;;;;;;;;;;;;;4948577;29;19926;-59
2022/11/12 05:24:14;;;;;;;;;;;;;;;;;;4933536;29;19934;-56
2022/11/12 05:26:40;;;;;;;;;;;;;;;;;;4938030;29;20396;-57
2022/11/12 05:29:06;;;;;;;;;;;;;;;;;;4948995;29;19926;-58
2022/11/12 05:31:32;;;;;;;;;;;;;;;;;;4949363;29;19927;-57
2022/11/12 05:33:58;;;;;;;;;;;;;;;;;;4949383;29;20333;-57
2022/11/12 05:36:24;;;;;;;;;;;;;;;;;;4948514;29;19934;-57
2022/11/12 05:38:50;;;;;;;;;;;;;;;;;;4948244;29;20352;-58
2022/11/12 05:41:16;;;;;;;;;;;;;;;;;;4948013;29;20380;-57
2022/11/12 05:43:42;;;;;;;;;;;;;;;;;;4948674;29;19993;-58
2022/11/12 05:46:08;;;;;;;;;;;;;;;;;;4948603;29;19933;-58
2022/11/12 05:48:34;;;;;;;;;;;;;;;;;;4950845;28;20005;-58
2022/11/12 05:51:00;;;;;;;;;;;;;;;;;;4952774;29;19934;-58
2022/11/12 05:53:26;;;;;;;;;;;;;;;;;;4951314;29;19927;-58
2022/11/12 05:55:52;;;;;;;;;;;;;;;;;;4951898;29;19980;-58
2022/11/12 05:58:18;;;;;;;;;;;;;;;;;;4951788;29;19989;-56
2022/11/12 06:00:44;;;;;;;;;;;;;;;;;;4952568;29;19933;-57
2022/11/12 06:03:10;;;;;;;;;;;;;;;;;;4951649;29;20004;-57
2022/11/12 06:05:36;;;;;;;;;;;;;;;;;;4977546;28;19929;-58
2022/11/12 06:08:02;;;;;;;;;;;;;;;;;;4990045;28;19933;-57
2022/11/12 06:10:28;;;;;;;;;;;;;;;;;;4989846;28;19926;-58
2022/11/12 06:12:55;;;;;;;;;;;;;;;;;;4990219;28;19934;-59
2022/11/12 06:15:21;;;;;;;;;;;;;;;;;;4990399;28;19960;-57
2022/11/12 06:17:47;;;;;;;;;;;;;;;;;;4989831;28;20326;-58
2022/11/12 06:20:13;;;;;;;;;;;;;;;;;;4990285;28;19971;-58
2022/11/12 06:22:39;;;;;;;;;;;;;;;;;;4986547;28;19926;-58
2022/11/12 06:25:05;;;;;;;;;;;;;;;;;;4980004;28;19930;-57
2022/11/12 06:27:31;;;;;;;;;;;;;;;;;;4986196;28;20652;-58
2022/11/12 06:29:57;;;;;;;;;;;;;;;;;;4990175;28;19930;-57
2022/11/12 06:32:23;;;;;;;;;;;;;;;;;;4984159;28;20410;-57
2022/11/12 06:34:51;;;;;;;;;;;;;;;;;;4990135;28;19926;-57
2022/11/12 06:37:17;;;;;;;;;;;;;;;;;;4988412;28;19932;-57
2022/11/12 06:39:43;;;;;;;;;;;;;;;;;;4988930;28;20279;-58
2022/11/12 06:42:09;;;;;;;;;;;;;;;;;;4989657;28;20020;-57
2022/11/12 06:44:35;;;;;;;;;;;;;;;;;;4989916;28;20364;-58
2022/11/12 06:47:01;;;;;;;;;;;;;;;;;;4990306;28;19926;-57
2022/11/12 06:49:27;;;;;;;;;;;;;;;;;;4989375;28;20392;-57
2022/11/12 06:51:53;;;;;;;;;;;;;;;;;;4988669;28;19932;-57
2022/11/12 06:54:19;;;;;;;;;;;;;;;;;;4989445;28;19933;-57
2022/11/12 06:56:45;;;;;;;;;;;;;;;;;;4989916;28;20020;-57
2022/11/12 06:59:11;;;;;;;;;;;;;;;;;;4988576;28;19941;-57
2022/11/12 07:01:37;;;;;;;;;;;;;;;;;;4989376;28;19926;-58
2022/11/12 07:04:03;;;;;;;;;;;;;;;;;;4987728;28;20399;-57
2022/11/12 07:06:29;;;;;;;;;;;;;;;;;;4985059;28;19977;-57
2022/11/12 07:08:55;;;;;;;;;;;;;;;;;;4964840;28;20411;-59
2022/11/12 07:11:21;;;;;;;;;;;;;;;;;;4981831;28;19937;-58
2022/11/12 07:13:47;;;;;;;;;;;;;;;;;;4988742;28;19925;-57
2022/11/12 07:16:17;;;;;;;;;;;;;;;;;;4979710;28;19952;-58
2022/11/12 07:18:43;;;;;;;;;;;;;;;;;;4988782;28;19926;-57
2022/11/12 07:21:09;;;;;;;;;;;;;;;;;;4988001;28;19942;-58
2022/11/12 07:23:35;;;;;;;;;;;;;;;;;;4968360;28;20351;-59
2022/11/12 07:26:01;;;;;;;;;;;;;;;;;;4978188;28;19937;-58
2022/11/12 07:28:27;;;;;;;;;;;;;;;;;;4970491;28;20315;-58
2022/11/12 07:30:53;;;;;;;;;;;;;;;;;;4987868;28;19929;-58
2022/11/12 07:33:19;;;;;;;;;;;;;;;;;;4987975;28;19934;-56
2022/11/12 07:35:45;;;;;;;;;;;;;;;;;;4988356;28;20044;-58
2022/11/12 07:38:11;;;;;;;;;;;;;;;;;;4987637;28;20359;-58
2022/11/12 07:40:37;;;;;;;;;;;;;;;;;;4988093;28;19925;-58
2022/11/12 07:43:03;;;;;;;;;;;;;;;;;;4987989;28;20291;-59
2022/11/12 07:45:29;;;;;;;;;;;;;;;;;;4988691;28;19940;-58
2022/11/12 07:47:55;;;;;;;;;;;;;;;;;;4988297;28;20133;-58
2022/11/12 07:50:21;;;;;;;;;;;;;;;;;;4988306;28;20382;-58
2022/11/12 07:52:47;;;;;;;;;;;;;;;;;;4987209;28;19926;-58
2022/11/12 07:55:13;;;;;;;;;;;;;;;;;;4983338;28;20375;-58
2022/11/12 07:57:39;;;;;;;;;;;;;;;;;;4983706;28;19932;-58
2022/11/12 08:00:05;;;;;;;;;;;;;;;;;;4976780;28;19985;-58
2022/11/12 08:02:31;;;;;;;;;;;;;;;;;;4956244;28;19934;-58
2022/11/12 08:04:57;;;;;;;;;;;;;;;;;;4974874;28;20521;-58
2022/11/12 08:07:23;;;;;;;;;;;;;;;;;;4976503;28;19937;-58
2022/11/12 08:09:49;;;;;;;;;;;;;;;;;;4972727;28;19955;-58
2022/11/12 08:12:15;;;;;;;;;;;;;;;;;;4979758;28;20702;-58
2022/11/12 08:14:41;;;;;;;;;;;;;;;;;;4979072;28;20369;-58
2022/11/12 08:17:07;;;;;;;;;;;;;;;;;;4979270;28;19945;-58
2022/11/12 08:19:33;;;;;;;;;;;;;;;;;;4979869;28;19961;-58
2022/11/12 08:21:59;;;;;;;;;;;;;;;;;;4973077;28;19976;-58
2022/11/12 08:24:25;;;;;;;;;;;;;;;;;;4970074;28;20384;-59
2022/11/12 08:26:51;;;;;;;;;;;;;;;;;;4970646;28;19933;-58
2022/11/12 08:29:17;;;;;;;;;;;;;;;;;;4980418;28;19945;-59
2022/11/12 08:31:43;;;;;;;;;;;;;;;;;;4985258;28;19932;-58
2022/11/12 08:34:11;;;;;;;;;;;;;;;;;;4975394;28;20678;-58
2022/11/12 08:36:37;;;;;;;;;;;;;;;;;;4967449;28;19930;-57
2022/11/12 08:39:03;;;;;;;;;;;;;;;;;;4985837;28;19981;-58
2022/11/12 08:41:29;;;;;;;;;;;;;;;;;;4985830;28;19926;-58
2022/11/12 08:43:56;;;;;;;;;;;;;;;;;;4985501;28;19930;-59
2022/11/12 08:46:22;;;;;;;;;;;;;;;;;;4985383;28;19929;-57
2022/11/12 08:48:48;;;;;;;;;;;;;;;;;;4975671;28;20016;-58
2022/11/12 08:51:14;;;;;;;;;;;;;;;;;;4980773;28;19929;-58
2022/11/12 08:53:40;;;;;;;;;;;;;;;;;;4985739;28;19934;-58
2022/11/12 08:56:06;;;;;;;;;;;;;;;;;;4985256;28;19980;-58
2022/11/12 08:58:32;;;;;;;;;;;;;;;;;;4985427;28;19930;-58
2022/11/12 09:00:58;;;;;;;;;;;;;;;;;;4968268;28;19937;-58
2022/11/12 09:03:24;;;;;;;;;;;;;;;;;;4985265;28;19985;-58
2022/11/12 09:05:50;;;;;;;;;;;;;;;;;;4985354;28;19930;-58
2022/11/12 09:08:18;;;;;;;;;;;;;;;;;;4983782;28;22393;-58
2022/11/12 09:10:44;;;;;;;;;;;;;;;;;;4985413;28;19930;-58
2022/11/12 09:13:10;;;;;;;;;;;;;;;;;;4984484;28;19934;-57
2022/11/12 09:15:36;;;;;;;;;;;;;;;;;;4985020;28;20398;-58
2022/11/12 09:18:02;;;;;;;;;;;;;;;;;;4985612;28;19930;-58
2022/11/12 09:20:28;;;;;;;;;;;;;;;;;;4985144;28;19936;-58
2022/11/12 09:22:54;;;;;;;;;;;;;;;;;;4985959;28;19933;-58
2022/11/12 09:25:20;;;;;;;;;;;;;;;;;;4977411;28;20400;-58
2022/11/12 09:27:46;;;;;;;;;;;;;;;;;;4986237;28;19934;-58
2022/11/12 09:30:12;;;;;;;;;;;;;;;;;;4988885;28;20707;-58
2022/11/12 09:32:38;;;;;;;;;;;;;;;;;;4989184;28;19933;-58
2022/11/12 09:35:04;;;;;;;;;;;;;;;;;;4988978;28;19976;-59
2022/11/12 09:37:30;;;;;;;;;;;;;;;;;;4988708;28;20024;-59
2022/11/12 09:39:56;;;;;;;;;;;;;;;;;;4988699;28;19921;-58
2022/11/12 09:42:22;;;;;;;;;;;;;;;;;;4982415;28;19930;-58
2022/11/12 09:44:48;;;;;;;;;;;;;;;;;;4969529;28;19981;-58
2022/11/12 09:47:14;;;;;;;;;;;;;;;;;;4977005;28;19929;-59
2022/11/12 09:49:41;;;;;;;;;;;;;;;;;;4978698;28;19929;-58
2022/11/12 09:52:07;;;;;;;;;;;;;;;;;;4982018;28;20379;-59
2022/11/12 09:54:32;;;;;;;;;;;;;;;;;;4985106;28;19929;-59
2022/11/12 09:56:58;;;;;;;;;;;;;;;;;;4985769;28;20296;-59
2022/11/12 09:59:24;;;;;;;;;;;;;;;;;;4988211;28;19929;-58
2022/11/12 10:01:52;;;;;;;;;;;;;;;;;;4988464;28;19930;-58
2022/11/12 10:04:18;;;;;;;;;;;;;;;;;;4983147;28;20532;-58
2022/11/12 10:06:44;;;;;;;;;;;;;;;;;;4984956;28;19949;-58
2022/11/12 10:09:10;;;;;;;;;;;;;;;;;;4988085;28;19953;-58
2022/11/12 10:12:30;;;;;;;;;;;;;;;;;;4988188;28;20012;-57
2022/11/12 10:14:22;;;;;;;;;;;;;;;;;;4985668;28;19930;-59
2022/11/12 10:16:48;;;;;;;;;;;;;;;;;;4987995;28;19936;-58
2022/11/12 10:19:14;;;;;;;;;;;;;;;;;;4981809;28;19930;-57
2022/11/12 10:21:40;;;;;;;;;;;;;;;;;;4980682;28;20631;-56
2022/11/12 10:24:06;;;;;;;;;;;;;;;;;;4987824;28;19929;-56
2022/11/12 10:26:33;;;;;;;;;;;;;;;;;;4988265;28;20251;-57
2022/11/12 10:28:59;;;;;;;;;;;;;;;;;;4988760;28;20024;-56
2022/11/12 10:31:25;;;;;;;;;;;;;;;;;;4987574;28;20025;-57
2022/11/12 10:36:59;;;;;;;;;;;;;;;;;;4972679;28;19953;-57
2022/11/12 10:39:46;;;;;;;;;;;;;;;;;;4975264;28;20335;-59
2022/11/12 10:42:12;;;;;;;;;;;;;;;;;;4973463;28;20399;-58
2022/11/12 10:44:38;;;;;;;;;;;;;;;;;;4955033;28;20333;-59
2022/11/12 10:56:09;;;;;;;;;;;;;;;;;;4983313;28;19965;-58
2022/11/12 10:58:35;;;;;;;;;;;;;;;;;;4987209;28;19930;-59
2022/11/12 11:01:01;;;;;;;;;;;;;;;;;;4987004;28;20710;-57
2022/11/12 11:03:27;;;;;;;;;;;;;;;;;;4985489;28;19936;-58
2022/11/12 11:05:53;;;;;;;;;;;;;;;;;;4986439;28;19937;-59
2022/11/12 11:08:24;;;;;;;;;;;;;;;;;;4976675;28;19926;-60
2022/11/12 11:14:02;;;;;;;;;;;;;;;;;;4979523;28;19925;-59
2022/11/12 11:16:29;;;;;;;;;;;;;;;;;;4986339;28;19937;-60
2022/11/12 11:18:55;;;;;;;;;;;;;;;;;;4982207;28;19984;-60
2022/11/12 11:21:21;;;;;;;;;;;;;;;;;;4966914;28;19945;-60
2022/11/12 11:23:47;;;;;;;;;;;;;;;;;;4968678;28;19929;-60
2022/11/12 11:26:13;;;;;;;;;;;;;;;;;;4972214;28;19930;-59
2022/11/12 11:28:39;;;;;;;;;;;;;;;;;;4986609;28;19988;-59
2022/11/12 11:31:05;;;;;;;;;;;;;;;;;;4986448;28;19980;-59
2022/11/12 11:33:31;;;;;;;;;;;;;;;;;;4974898;28;19973;-59
2022/11/12 11:35:57;;;;;;;;;;;;;;;;;;4969214;28;20389;-59
2022/11/12 11:38:23;;;;;;;;;;;;;;;;;;4955449;28;19926;-60
2022/11/12 11:40:49;;;;;;;;;;;;;;;;;;4980094;28;20478;-59
2022/11/12 11:43:15;;;;;;;;;;;;;;;;;;4985849;28;19926;-59
2022/11/12 11:45:41;;;;;;;;;;;;;;;;;;4985622;28;20385;-59
2022/11/12 11:48:07;;;;;;;;;;;;;;;;;;4986274;28;19936;-60
2022/11/12 11:50:33;;;;;;;;;;;;;;;;;;4984863;28;19930;-61
2022/11/12 11:52:59;;;;;;;;;;;;;;;;;;4986395;28;19936;-58
2022/11/12 11:55:25;;;;;;;;;;;;;;;;;;4986063;28;19929;-59
2022/11/12 11:57:51;;;;;;;;;;;;;;;;;;4985495;28;20322;-59
2022/11/12 12:00:18;;;;;;;;;;;;;;;;;;4985753;28;19929;-59
2022/11/12 12:02:44;;;;;;;;;;;;;;;;;;4985703;28;19937;-59
2022/11/12 12:05:10;;;;;;;;;;;;;;;;;;4985003;28;19930;-59
2022/11/12 12:07:36;;;;;;;;;;;;;;;;;;4967592;28;19989;-60
2022/11/12 12:10:02;;;;;;;;;;;;;;;;;;4986075;28;19929;-59
2022/11/12 12:12:28;;;;;;;;;;;;;;;;;;4985897;28;19930;-59
2022/11/12 12:14:54;;;;;;;;;;;;;;;;;;4985757;28;19930;-59
2022/11/12 12:17:20;;;;;;;;;;;;;;;;;;4985627;28;19945;-57
2022/11/12 12:19:46;;;;;;;;;;;;;;;;;;4985656;28;20016;-57
2022/11/12 12:22:12;;;;;;;;;;;;;;;;;;4982649;28;19925;-58
2022/11/12 12:24:38;;;;;;;;;;;;;;;;;;4976339;28;20366;-58
2022/11/12 12:27:04;;;;;;;;;;;;;;;;;;4980444;28;19926;-60
2022/11/12 12:29:30;;;;;;;;;;;;;;;;;;4982127;28;19933;-57
2022/11/12 12:31:56;;;;;;;;;;;;;;;;;;4988005;28;19925;-57
2022/11/12 12:34:21;;;;;;;;;;;;;;;;;;4987251;28;19960;-57
2022/11/12 12:36:47;;;;;;;;;;;;;;;;;;4987343;28;19933;-57
2022/11/12 12:39:13;;;;;;;;;;;;;;;;;;4988223;28;20040;-57
2022/11/12 12:41:39;;;;;;;;;;;;;;;;;;4970613;28;19926;-57
2022/11/12 12:44:05;;;;;;;;;;;;;;;;;;4987635;28;19926;-58
2022/11/12 12:46:31;;;;;;;;;;;;;;;;;;4988230;28;20626;-57
2022/11/12 12:48:57;;;;;;;;;;;;;;;;;;4987765;28;19926;-57
2022/11/12 12:51:23;;;;;;;;;;;;;;;;;;4986908;28;19929;-57
2022/11/12 12:53:49;;;;;;;;;;;;;;;;;;4988364;28;19926;-57
2022/11/12 12:56:15;;;;;;;;;;;;;;;;;;4971181;28;19926;-58
2022/11/12 12:58:41;;;;;;;;;;;;;;;;;;4991968;28;20680;-57
2022/11/12 13:01:08;;;;;;;;;;;;;;;;;;4991451;28;19925;-58
2022/11/12 13:03:34;;;;;;;;;;;;;;;;;;4992273;28;19972;-59
2022/11/12 13:06:00;;;;;;;;;;;;;;;;;;4991237;28;19925;-57
2022/11/12 13:08:26;;;;;;;;;;;;;;;;;;4991501;28;20288;-57
2022/11/12 13:10:52;;;;;;;;;;;;;;;;;;4991655;28;19937;-57
2022/11/12 13:13:18;;;;;;;;;;;;;;;;;;4974372;28;20375;-57
2022/11/12 13:15:44;;;;;;;;;;;;;;;;;;4991639;28;19973;-58
2022/11/12 13:18:10;;;;;;;;;;;;;;;;;;4991339;28;19973;-58
2022/11/12 13:20:36;;;;;;;;;;;;;;;;;;4991090;28;19929;-58
2022/11/12 13:23:02;;;;;;;;;;;;;;;;;;4991918;28;19926;-58
2022/11/12 13:25:28;;;;;;;;;;;;;;;;;;4991298;28;19926;-58
2022/11/12 13:27:54;;;;;;;;;;;;;;;;;;4992206;28;20407;-58
2022/11/12 13:30:20;;;;;;;;;;;;;;;;;;4990792;28;19969;-58
2022/11/12 13:32:46;;;;;;;;;;;;;;;;;;4991584;28;20667;-57
2022/11/12 13:35:12;;;;;;;;;;;;;;;;;;4991350;28;19933;-58
2022/11/12 13:37:38;;;;;;;;;;;;;;;;;;4972860;28;19933;-58
2022/11/12 13:40:04;;;;;;;;;;;;;;;;;;4990993;28;19977;-60
2022/11/12 13:42:48;;;;;;;;;;;;;;;;;;4991600;28;19921;-58
2022/11/12 13:45:14;;;;;;;;;;;;;;;;;;4979118;28;20362;-58
2022/11/12 13:47:40;;;;;;;;;;;;;;;;;;4991219;28;20499;-58
2022/11/12 13:50:06;;;;;;;;;;;;;;;;;;4990924;28;19933;-58
2022/11/12 13:52:32;;;;;;;;;;;;;;;;;;4972998;28;19948;-58
2022/11/12 13:54:58;;;;;;;;;;;;;;;;;;4990856;28;19933;-58
2022/11/12 13:57:24;;;;;;;;;;;;;;;;;;4991187;28;20948;-58
2022/11/12 13:59:50;;;;;;;;;;;;;;;;;;4990836;28;20017;-58
2022/11/12 14:02:16;;;;;;;;;;;;;;;;;;4990472;28;20021;-58
2022/11/12 14:04:42;;;;;;;;;;;;;;;;;;4973050;28;19926;-58
2022/11/12 14:07:08;;;;;;;;;;;;;;;;;;4989977;28;19926;-58
2022/11/12 14:09:34;;;;;;;;;;;;;;;;;;4989975;28;19953;-58
2022/11/12 14:12:00;;;;;;;;;;;;;;;;;;4990444;28;20452;-58
2022/11/12 14:14:26;;;;;;;;;;;;;;;;;;4990297;28;19926;-58
2022/11/12 14:16:53;;;;;;;;;;;;;;;;;;4985879;28;19944;-58
2022/11/12 14:19:18;;;;;;;;;;;;;;;;;;4987296;28;19934;-58
2022/11/12 14:21:44;;;;;;;;;;;;;;;;;;4986543;28;19988;-58
2022/11/12 14:24:10;;;;;;;;;;;;;;;;;;4987150;28;19925;-58
2022/11/12 14:26:37;;;;;;;;;;;;;;;;;;4987309;28;19988;-58
2022/11/12 14:29:02;;;;;;;;;;;;;;;;;;4988093;28;19945;-58
2022/11/12 14:31:28;;;;;;;;;;;;;;;;;;4987669;28;19933;-58
2022/11/12 14:33:54;;;;;;;;;;;;;;;;;;4987690;28;19937;-58
2022/11/12 14:36:20;;;;;;;;;;;;;;;;;;4986734;28;19981;-58
2022/11/12 14:38:46;;;;;;;;;;;;;;;;;;4987402;28;20438;-58
2022/11/12 14:41:12;;;;;;;;;;;;;;;;;;4987005;28;19985;-58
2022/11/12 14:43:38;;;;;;;;;;;;;;;;;;4987807;28;19930;-58
2022/11/12 14:46:04;;;;;;;;;;;;;;;;;;4987741;28;20045;-59
2022/11/12 14:48:30;;;;;;;;;;;;;;;;;;4987305;28;20053;-58
2022/11/12 14:50:56;;;;;;;;;;;;;;;;;;4986752;28;19930;-58
2022/11/12 14:53:23;;;;;;;;;;;;;;;;;;4986472;28;19929;-57
2022/11/12 14:55:49;;;;;;;;;;;;;;;;;;4987133;28;19936;-58
2022/11/12 14:58:15;;;;;;;;;;;;;;;;;;4987159;28;20017;-58
2022/11/12 15:00:41;;;;;;;;;;;;;;;;;;4987389;28;20392;-58
2022/11/12 15:03:07;;;;;;;;;;;;;;;;;;4986825;28;20363;-58
2022/11/12 15:05:36;;;;;;;;;;;;;;;;;;4986267;28;19987;-58
2022/11/12 15:08:02;;;;;;;;;;;;;;;;;;4988108;28;19969;-58
2022/11/12 15:10:28;;;;;;;;;;;;;;;;;;4986803;28;20634;-58
2022/11/12 15:12:54;;;;;;;;;;;;;;;;;;4987348;28;19930;-58
2022/11/12 15:15:21;;;;;;;;;;;;;;;;;;4986456;28;19936;-58
2022/11/12 15:17:47;;;;;;;;;;;;;;;;;;4987090;28;19972;-58
2022/11/12 15:20:13;;;;;;;;;;;;;;;;;;4983519;28;20399;-58
2022/11/12 15:22:39;;;;;;;;;;;;;;;;;;4986995;28;19953;-58
2022/11/12 15:25:05;;;;;;;;;;;;;;;;;;4986326;28;20363;-59
2022/11/12 15:27:31;;;;;;;;;;;;;;;;;;4986027;28;19938;-59
2022/11/12 15:29:57;;;;;;;;;;;;;;;;;;4987028;28;19965;-59
2022/11/12 15:32:23;;;;;;;;;;;;;;;;;;4985577;28;19969;-59
2022/11/12 15:34:50;;;;;;;;;;;;;;;;;;4986137;28;19930;-59
2022/11/12 15:37:16;;;;;;;;;;;;;;;;;;4985678;28;20008;-59
2022/11/12 15:39:42;;;;;;;;;;;;;;;;;;4986092;28;20008;-59
2022/11/12 15:42:08;;;;;;;;;;;;;;;;;;4985630;28;20029;-59
2022/11/12 15:44:34;;;;;;;;;;;;;;;;;;4986267;28;20095;-60
2022/11/12 15:47:00;;;;;;;;;;;;;;;;;;4986633;28;19937;-59
2022/11/12 15:49:26;;;;;;;;;;;;;;;;;;4968471;28;19933;-60
2022/11/12 15:51:52;;;;;;;;;;;;;;;;;;4985636;28;19930;-59
2022/11/12 15:54:18;;;;;;;;;;;;;;;;;;4985942;28;20281;-59
2022/11/12 15:56:44;;;;;;;;;;;;;;;;;;4985915;28;19937;-59
2022/11/12 15:59:10;;;;;;;;;;;;;;;;;;4985453;28;20592;-59
2022/11/12 16:01:36;;;;;;;;;;;;;;;;;;4982315;28;19930;-59
2022/11/12 16:04:02;;;;;;;;;;;;;;;;;;4984811;28;19930;-59
2022/11/12 16:06:28;;;;;;;;;;;;;;;;;;4985114;28;20016;-59
2022/11/12 16:08:54;;;;;;;;;;;;;;;;;;4985493;28;19937;-59
2022/11/12 16:11:35;;;;;;;;;;;;;;;;;;4984947;28;19933;-59
2022/11/12 16:14:01;;;;;;;;;;;;;;;;;;4985419;28;19937;-59
2022/11/12 16:16:27;;;;;;;;;;;;;;;;;;4985163;28;19930;-59
2022/11/12 16:18:53;;;;;;;;;;;;;;;;;;4984561;28;19928;-59
2022/11/12 16:21:19;;;;;;;;;;;;;;;;;;4978669;28;19929;-60
2022/11/12 16:23:45;;;;;;;;;;;;;;;;;;4985385;28;19930;-59
2022/11/12 16:26:11;;;;;;;;;;;;;;;;;;4985226;28;20376;-57
2022/11/12 16:28:37;;;;;;;;;;;;;;;;;;4984001;28;19926;-59
2022/11/12 16:31:03;;;;;;;;;;;;;;;;;;4964165;28;19922;-59
2022/11/12 16:33:29;;;;;;;;;;;;;;;;;;4984645;28;20488;-59
2022/11/12 16:35:55;;;;;;;;;;;;;;;;;;4984522;28;20387;-60
2022/11/12 16:38:22;;;;;;;;;;;;;;;;;;4977058;28;19930;-60
2022/11/12 16:40:48;;;;;;;;;;;;;;;;;;4984263;28;20028;-59
2022/11/12 16:43:14;;;;;;;;;;;;;;;;;;4984312;28;20291;-59
2022/11/12 16:45:40;;;;;;;;;;;;;;;;;;4984502;28;20028;-59
2022/11/12 16:48:06;;;;;;;;;;;;;;;;;;4967326;28;20048;-59
2022/11/12 16:50:32;;;;;;;;;;;;;;;;;;4984761;28;20092;-59
2022/11/12 16:52:58;;;;;;;;;;;;;;;;;;4983831;28;20304;-59
2022/11/12 16:55:24;;;;;;;;;;;;;;;;;;4984494;28;20016;-59
2022/11/12 16:57:50;;;;;;;;;;;;;;;;;;4983652;28;19992;-59
2022/11/12 17:00:16;;;;;;;;;;;;;;;;;;4964597;28;20356;-59
2022/11/12 17:02:42;;;;;;;;;;;;;;;;;;4985235;28;20386;-59
2022/11/12 17:05:08;;;;;;;;;;;;;;;;;;4984091;28;19929;-59
2022/11/12 17:07:34;;;;;;;;;;;;;;;;;;4983862;28;19930;-61
2022/11/12 17:10:00;;;;;;;;;;;;;;;;;;4985135;28;20033;-59
2022/11/12 17:12:26;;;;;;;;;;;;;;;;;;4982745;28;19936;-59